Fulmar — WDD3992 — position and weather

sailwx.info

Track history (hours):
 
Tides and Currents Weather Stations Pressure Air Temp Water Temp Dewpoint Dewpoint Depression Visibility Wind Speed Wind Dir Waves Ship Positions

Oceanographic research ship Fulmar (United States)

Owner: NOAA R/V Fulmar, Monterey, CA. More information available from US FCC via Universal Licensing System.

Last reported at 2019-Sep-21 21:30 UTC. Time now 2019-Sep-21 21:51 UTC.
Position N 38°03' W 123°11'.

Length 20 m; draft 2 m.

Type: Ship. MMSI: 367139040.

Date/timePositionNaut miles runAvg speedWind from/ knotsBaromVisibWave heightAir tempDewpointWater temp
2019-Sep-21 21:30N 38°03' W 123°11'4 7.8
2019-Sep-21 21:00N 38°03' W 123°16'1 1.2
2019-Sep-21 20:30N 38°03' W 123°17'5 9.2
2019-Sep-21 20:00N 38°03' W 123°22'1 1.9
2019-Sep-21 19:30N 38°03' W 123°24'4 6.2
2019-Sep-21 18:56N 38°03' W 123°28'1 3.2
2019-Sep-21 18:30N 38°03' W 123°30'3 6.7
2019-Sep-21 18:00N 38°03' W 123°34'1 1.9
2019-Sep-21 17:30N 38°03' W 123°33'1 2.0
2019-Sep-21 16:58N 38°03' W 123°32'1 0.9
2019-Sep-21 16:18N 38°03' W 123°31'412.6
2019-Sep-21 16:00N 38°05' W 123°27'713.6
2019-Sep-21 15:30N 38°08' W 123°20'917.5
2019-Sep-21 15:00N 38°13' W 123°10'815.8
2019-Sep-21 14:30N 38°18' W 123°03'2 3.5
2019-Sep-21 14:00N 38°20' W 123°03'0 0.0
2019-Sep-21 13:30N 38°20' W 123°03'0 0.0
2019-Sep-21 13:00N 38°20' W 123°03'0 0.0
2019-Sep-21 02:31N 38°20' W 123°03'0 0.0
2019-Sep-21 02:30N 38°20' W 123°03'1 2.9
2019-Sep-21 02:00N 38°18' W 123°03'815.1
2019-Sep-21 01:31N 38°12' W 123°08'918.4
2019-Sep-21 01:00N 38°05' W 123°16'816.3
2019-Sep-21 00:30N 37°60' W 123°24'13 5.5
2019-Sep-20 22:09N 37°58' W 123°07'213.0
2019-Sep-20 22:00N 37°58' W 123°05'1018.6
2019-Sep-20 21:29N 37°54' W 122°54'1018.3
2019-Sep-20 20:56N 37°51' W 122°41'717.5
2019-Sep-20 20:30N 37°49' W 122°32'4 7.6
2019-Sep-20 20:00N 37°52' W 122°29'0 0.3
2019-Sep-20 19:27N 37°52' W 122°30'0 0.0
2019-Sep-20 19:00N 37°52' W 122°30'0 0.0
2019-Sep-20 18:21N 37°52' W 122°30'0 0.0
2019-Sep-20 18:00N 37°52' W 122°30'0 0.0
2019-Sep-20 17:30N 37°52' W 122°30'0 0.0
2019-Sep-20 17:00N 37°52' W 122°30'0 0.0
2019-Sep-20 16:30N 37°52' W 122°30'0 0.0
2019-Sep-20 15:57N 37°52' W 122°30'0 0.0
2019-Sep-20 15:30N 37°52' W 122°30'0 0.0
2019-Sep-20 15:00N 37°52' W 122°30'0 0.0
2019-Sep-20 14:27N 37°52' W 122°30'0 0.0
2019-Sep-20 13:51N 37°52' W 122°30'0 0.0
2019-Sep-20 13:27N 37°52' W 122°30'0 0.0
2019-Sep-20 13:00N 37°52' W 122°30'0 0.0
2019-Sep-20 12:30N 37°52' W 122°30'0 0.0
2019-Sep-20 12:00N 37°52' W 122°30'0 0.0
2019-Sep-20 11:30N 37°52' W 122°30'0 0.0
2019-Sep-20 10:57N 37°52' W 122°30'0 0.0
2019-Sep-20 10:30N 37°52' W 122°30'0 0.0
2019-Sep-20 09:57N 37°52' W 122°30'0 0.0
2019-Sep-20 09:27N 37°52' W 122°30'0 0.0
2019-Sep-20 09:00N 37°52' W 122°30'0 0.0
2019-Sep-20 08:30N 37°52' W 122°30'0 0.0
2019-Sep-20 07:57N 37°52' W 122°30'0 0.0
2019-Sep-20 07:30N 37°52' W 122°30'0 0.0
2019-Sep-20 06:57N 37°52' W 122°30'0 0.0
2019-Sep-20 06:30N 37°52' W 122°30'0 0.0
2019-Sep-20 05:57N 37°52' W 122°30'0 0.0
2019-Sep-20 05:27N 37°52' W 122°30'0 0.0
2019-Sep-20 04:57N 37°52' W 122°30'0 0.0
2019-Sep-20 04:24N 37°52' W 122°30'0 0.0
2019-Sep-20 04:00N 37°52' W 122°30'0 0.0
2019-Sep-20 03:27N 37°52' W 122°30'0 0.0
2019-Sep-20 02:57N 37°52' W 122°30'0 0.0
2019-Sep-20 02:27N 37°52' W 122°30'0 0.0
2019-Sep-20 01:57N 37°52' W 122°30'0 0.0
2019-Sep-20 01:27N 37°52' W 122°30'0 0.0
2019-Sep-20 01:00N 37°52' W 122°30'0 0.0
2019-Sep-20 00:27N 37°52' W 122°30'0 0.0
2019-Sep-20 00:00N 37°52' W 122°30'0 0.0
2019-Sep-19 23:27N 37°52' W 122°30'0 0.0
2019-Sep-19 22:39N 37°52' W 122°30'0 0.4
2019-Sep-19 22:28N 37°52' W 122°30'0 0.0
2019-Sep-19 21:58N 37°52' W 122°30'0 0.0
2019-Sep-19 21:28N 37°52' W 122°30'0 0.0
2019-Sep-19 20:55N 37°52' W 122°30'1 2.7
2019-Sep-19 20:30N 37°51' W 122°28'4 7.6
2019-Sep-19 20:00N 37°49' W 122°25'3 6.7
2019-Sep-19 19:30N 37°49' W 122°29'917.0
2019-Sep-19 19:00N 37°41' W 122°34'815.9
2019-Sep-19 18:29N 37°32' W 122°34'816.9
2019-Sep-19 18:00N 37°24' W 122°32'  
Track history (hours):
 
Tides and Currents Weather Stations Pressure Air Temp Water Temp Dewpoint Dewpoint Depression Visibility Wind Speed Wind Dir Waves Ship Positions

Oceanographic research ship Fulmar (United States)

Owner: NOAA R/V Fulmar, Monterey, CA. More information available from US FCC via Universal Licensing System.

Last reported at 2019-Sep-21 21:30 UTC. Time now 2019-Sep-21 21:51 UTC.
Position N 38°03' W 123°11'.

Length 20 m; draft 2 m.

Type: Ship. MMSI: 367139040.

Date/timePositionNaut miles runAvg speedWind from/ knotsBaromVisibWave heightAir tempDewpointWater temp
2019-Sep-21 21:30N 38°03' W 123°11'4 7.8
2019-Sep-21 21:00N 38°03' W 123°16'1 1.2
2019-Sep-21 20:30N 38°03' W 123°17'5 9.2
2019-Sep-21 20:00N 38°03' W 123°22'1 1.9
2019-Sep-21 19:30N 38°03' W 123°24'4 6.2
2019-Sep-21 18:56N 38°03' W 123°28'1 3.2
2019-Sep-21 18:30N 38°03' W 123°30'3 6.7
2019-Sep-21 18:00N 38°03' W 123°34'1 1.9
2019-Sep-21 17:30N 38°03' W 123°33'1 2.0
2019-Sep-21 16:58N 38°03' W 123°32'1 0.9
2019-Sep-21 16:18N 38°03' W 123°31'412.6
2019-Sep-21 16:00N 38°05' W 123°27'713.6
2019-Sep-21 15:30N 38°08' W 123°20'917.5
2019-Sep-21 15:00N 38°13' W 123°10'815.8
2019-Sep-21 14:30N 38°18' W 123°03'2 3.5
2019-Sep-21 14:00N 38°20' W 123°03'0 0.0
2019-Sep-21 13:30N 38°20' W 123°03'0 0.0
2019-Sep-21 13:00N 38°20' W 123°03'0 0.0
2019-Sep-21 02:31N 38°20' W 123°03'0 0.0
2019-Sep-21 02:30N 38°20' W 123°03'1 2.9
2019-Sep-21 02:00N 38°18' W 123°03'815.1
2019-Sep-21 01:31N 38°12' W 123°08'918.4
2019-Sep-21 01:00N 38°05' W 123°16'816.3
2019-Sep-21 00:30N 37°60' W 123°24'13 5.5
2019-Sep-20 22:09N 37°58' W 123°07'213.0
2019-Sep-20 22:00N 37°58' W 123°05'1018.6
2019-Sep-20 21:29N 37°54' W 122°54'1018.3
2019-Sep-20 20:56N 37°51' W 122°41'717.5
2019-Sep-20 20:30N 37°49' W 122°32'4 7.6
2019-Sep-20 20:00N 37°52' W 122°29'0 0.3
2019-Sep-20 19:27N 37°52' W 122°30'0 0.0
2019-Sep-20 19:00N 37°52' W 122°30'0 0.0
2019-Sep-20 18:21N 37°52' W 122°30'0 0.0
2019-Sep-20 18:00N 37°52' W 122°30'0 0.0
2019-Sep-20 17:30N 37°52' W 122°30'0 0.0
2019-Sep-20 17:00N 37°52' W 122°30'0 0.0
2019-Sep-20 16:30N 37°52' W 122°30'0 0.0
2019-Sep-20 15:57N 37°52' W 122°30'0 0.0
2019-Sep-20 15:30N 37°52' W 122°30'0 0.0
2019-Sep-20 15:00N 37°52' W 122°30'0 0.0
2019-Sep-20 14:27N 37°52' W 122°30'0 0.0
2019-Sep-20 13:51N 37°52' W 122°30'0 0.0
2019-Sep-20 13:27N 37°52' W 122°30'0 0.0
2019-Sep-20 13:00N 37°52' W 122°30'0 0.0
2019-Sep-20 12:30N 37°52' W 122°30'0 0.0
2019-Sep-20 12:00N 37°52' W 122°30'0 0.0
2019-Sep-20 11:30N 37°52' W 122°30'0 0.0
2019-Sep-20 10:57N 37°52' W 122°30'0 0.0
2019-Sep-20 10:30N 37°52' W 122°30'0 0.0
2019-Sep-20 09:57N 37°52' W 122°30'0 0.0
2019-Sep-20 09:27N 37°52' W 122°30'0 0.0
2019-Sep-20 09:00N 37°52' W 122°30'0 0.0
2019-Sep-20 08:30N 37°52' W 122°30'0 0.0
2019-Sep-20 07:57N 37°52' W 122°30'0 0.0
2019-Sep-20 07:30N 37°52' W 122°30'0 0.0
2019-Sep-20 06:57N 37°52' W 122°30'0 0.0
2019-Sep-20 06:30N 37°52' W 122°30'0 0.0
2019-Sep-20 05:57N 37°52' W 122°30'0 0.0
2019-Sep-20 05:27N 37°52' W 122°30'0 0.0
2019-Sep-20 04:57N 37°52' W 122°30'0 0.0
2019-Sep-20 04:24N 37°52' W 122°30'0 0.0
2019-Sep-20 04:00N 37°52' W 122°30'0 0.0
2019-Sep-20 03:27N 37°52' W 122°30'0 0.0
2019-Sep-20 02:57N 37°52' W 122°30'0 0.0
2019-Sep-20 02:27N 37°52' W 122°30'0 0.0
2019-Sep-20 01:57N 37°52' W 122°30'0 0.0
2019-Sep-20 01:27N 37°52' W 122°30'0 0.0
2019-Sep-20 01:00N 37°52' W 122°30'0 0.0
2019-Sep-20 00:27N 37°52' W 122°30'0 0.0
2019-Sep-20 00:00N 37°52' W 122°30'0 0.0
2019-Sep-19 23:27N 37°52' W 122°30'0 0.0
2019-Sep-19 22:39N 37°52' W 122°30'0 0.4
2019-Sep-19 22:28N 37°52' W 122°30'0 0.0
2019-Sep-19 21:58N 37°52' W 122°30'0 0.0
2019-Sep-19 21:28N 37°52' W 122°30'0 0.0
2019-Sep-19 20:55N 37°52' W 122°30'1 2.7
2019-Sep-19 20:30N 37°51' W 122°28'4 7.6
2019-Sep-19 20:00N 37°49' W 122°25'3 6.7
2019-Sep-19 19:30N 37°49' W 122°29'917.0
2019-Sep-19 19:00N 37°41' W 122°34'815.9
2019-Sep-19 18:29N 37°32' W 122°34'816.9
2019-Sep-19 18:00N 37°24' W 122°32'  

Dump ship's entire track history